Time;durP1;ratioP1;P1;durP2;ratioP2;P2;SDS_P1;SDS_P2;PMS_P1;PMS_P2;Temp;Humidity;BMP_temperature;BMP_pressure;BME280_temperature;BME280_humidity;BME280_pressure;Samples;Min_cycle;Max_cycle;Signal;HPM_P1;HPM_P2
2021/05/26 00:00:23;;;;;;;9.10;3.30;;;9.10;99.90;;;;;;5025033;28;20095;-61
2021/05/26 00:02:49;;;;;;;10.98;2.92;;;9.10;99.90;;;;;;5030758;28;20398;-60
2021/05/26 00:05:15;;;;;;;8.15;3.47;;;9.00;99.90;;;;;;5022612;28;20034;-61
2021/05/26 00:07:41;;;;;;;12.63;3.42;;;9.00;99.90;;;;;;5025275;28;20041;-61
2021/05/26 00:10:07;;;;;;;8.38;3.50;;;8.90;99.90;;;;;;5022091;28;20045;-60
2021/05/26 00:12:33;;;;;;;9.52;3.42;;;8.90;99.90;;;;;;5017639;28;20022;-60
2021/05/26 00:14:59;;;;;;;9.80;3.47;;;8.80;99.90;;;;;;5021061;28;20029;-61
2021/05/26 00:17:24;;;;;;;12.98;3.90;;;8.70;99.90;;;;;;5030520;28;20100;-61
2021/05/26 00:19:50;;;;;;;11.07;3.28;;;8.60;99.90;;;;;;5021976;28;20546;-61
2021/05/26 00:22:16;;;;;;;9.80;4.00;;;8.60;99.90;;;;;;5030407;28;20095;-61
2021/05/26 00:24:41;;;;;;;8.65;3.72;;;8.50;99.90;;;;;;5019262;28;20080;-60
2021/05/26 00:27:07;;;;;;;14.32;3.30;;;8.50;99.90;;;;;;5028463;28;20016;-61
2021/05/26 00:29:33;;;;;;;9.98;3.33;;;8.40;99.90;;;;;;5018350;28;20042;-61
2021/05/26 00:31:58;;;;;;;7.97;3.45;;;8.40;99.90;;;;;;5024529;28;20139;-60
2021/05/26 00:34:24;;;;;;;10.15;3.88;;;8.40;99.90;;;;;;5023688;28;20022;-60
2021/05/26 00:36:50;;;;;;;8.63;3.55;;;8.30;99.90;;;;;;5026813;28;20060;-60
2021/05/26 00:39:15;;;;;;;10.18;3.80;;;8.30;99.90;;;;;;5026929;28;20052;-61
2021/05/26 00:41:41;;;;;;;9.73;3.58;;;8.30;99.90;;;;;;5029118;28;20100;-61
2021/05/26 00:44:07;;;;;;;7.72;2.78;;;8.30;99.90;;;;;;5026007;28;20091;-60
2021/05/26 00:46:44;;;;;;;9.18;3.53;;;8.40;99.90;;;;;;5023557;28;20457;-61
2021/05/26 00:49:10;;;;;;;10.50;3.60;;;8.30;99.90;;;;;;5024556;28;20034;-61
2021/05/26 00:51:36;;;;;;;9.77;3.50;;;8.40;99.90;;;;;;5007659;28;20697;-61
2021/05/26 00:54:03;;;;;;;7.65;3.20;;;8.40;99.90;;;;;;5026980;28;20464;-60
2021/05/26 00:56:29;;;;;;;14.25;3.83;;;8.50;99.90;;;;;;5029604;28;20474;-60
2021/05/26 00:58:55;;;;;;;9.45;3.53;;;8.30;99.90;;;;;;5024226;28;20036;-61
2021/05/26 01:01:20;;;;;;;9.32;3.95;;;8.20;99.90;;;;;;5015923;28;20429;-61
2021/05/26 01:03:46;;;;;;;9.93;3.85;;;8.20;99.90;;;;;;5019056;28;20116;-61
2021/05/26 01:06:12;;;;;;;10.40;3.92;;;8.30;99.90;;;;;;5023382;28;20061;-61
2021/05/26 01:08:37;;;;;;;10.30;4.35;;;8.10;99.90;;;;;;5024403;28;20164;-60
2021/05/26 01:11:06;;;;;;;9.52;4.30;;;8.20;99.90;;;;;;5016305;28;20033;-60
2021/05/26 01:13:33;;;;;;;13.20;3.75;;;8.20;99.90;;;;;;5024112;28;20520;-60
2021/05/26 01:15:59;;;;;;;11.75;4.00;;;8.30;99.90;;;;;;5018628;28;20119;-61
2021/05/26 01:18:31;;;;;;;13.80;4.57;;;8.20;99.90;;;;;;5028707;28;20497;-61
2021/05/26 01:21:00;;;;;;;10.90;4.57;;;8.10;99.90;;;;;;5025787;28;20033;-61
2021/05/26 01:23:26;;;;;;;10.50;4.35;;;8.10;99.90;;;;;;5029778;28;20768;-61
2021/05/26 01:25:54;;;;;;;13.13;4.82;;;8.20;99.90;;;;;;5025672;28;20025;-60
2021/05/26 01:28:21;;;;;;;12.60;4.32;;;8.30;99.90;;;;;;5021516;28;20033;-60
2021/05/26 01:30:47;;;;;;;13.02;4.78;;;8.30;99.90;;;;;;5022484;28;20060;-60
2021/05/26 01:33:14;;;;;;;12.23;5.18;;;8.20;99.90;;;;;;5027978;28;20384;-60
2021/05/26 01:35:41;;;;;;;15.63;5.32;;;8.20;99.90;;;;;;5026056;28;20469;-60
2021/05/26 01:38:10;;;;;;;12.85;5.10;;;8.20;99.90;;;;;;5025802;28;20029;-60
2021/05/26 01:40:36;;;;;;;11.93;5.17;;;8.30;99.90;;;;;;5023789;28;20134;-60
2021/05/26 01:43:02;;;;;;;16.25;5.88;;;8.30;99.90;;;;;;5020075;28;20030;-61
2021/05/26 01:45:27;;;;;;;16.88;5.78;;;8.20;99.90;;;;;;5018471;28;20034;-61
2021/05/26 01:47:53;;;;;;;10.50;4.05;;;8.20;99.90;;;;;;5030252;28;20066;-61
2021/05/26 01:50:21;;;;;;;13.27;5.97;;;8.20;99.90;;;;;;5019180;28;20099;-61
2021/05/26 01:53:08;;;;;;;12.35;5.13;;;8.30;99.90;;;;;;5026933;28;20021;-60
2021/05/26 01:55:35;;;;;;;12.32;5.97;;;8.30;99.90;;;;;;5018336;28;20512;-61
2021/05/26 01:58:01;;;;;;;14.35;5.38;;;8.30;99.90;;;;;;5027128;28;20047;-61
2021/05/26 02:00:27;;;;;;;14.38;5.47;;;8.30;99.90;;;;;;5024701;28;20033;-61
2021/05/26 02:02:53;;;;;;;9.43;3.80;;;8.40;99.90;;;;;;5028772;28;20029;-60
2021/05/26 02:05:19;;;;;;;14.50;6.05;;;8.40;99.90;;;;;;5028389;28;20090;-60
2021/05/26 02:07:45;;;;;;;16.70;5.93;;;8.40;99.90;;;;;;5028231;28;20034;-60
2021/05/26 02:10:13;;;;;;;10.68;4.35;;;8.50;99.90;;;;;;5025630;28;20589;-61
2021/05/26 02:12:40;;;;;;;12.23;3.78;;;8.50;99.90;;;;;;5021101;28;20029;-60
2021/05/26 02:15:09;;;;;;;12.90;5.70;;;8.60;99.90;;;;;;5020392;28;20029;-60
2021/05/26 02:17:34;;;;;;;15.77;6.43;;;8.60;99.90;;;;;;5020276;28;20022;-60
2021/05/26 02:20:00;;;;;;;15.88;5.38;;;8.50;99.90;;;;;;5024214;28;20048;-60
2021/05/26 02:22:26;;;;;;;13.27;4.97;;;8.40;99.90;;;;;;5026613;28;20072;-61
2021/05/26 02:24:52;;;;;;;12.75;4.80;;;8.40;99.90;;;;;;5028917;28;20037;-60
2021/05/26 02:27:17;;;;;;;16.48;5.72;;;8.40;99.90;;;;;;5012983;28;20033;-60
2021/05/26 02:29:44;;;;;;;15.80;6.18;;;8.40;99.90;;;;;;5011849;28;20048;-60
2021/05/26 02:32:10;;;;;;;16.77;6.18;;;8.40;99.90;;;;;;5022329;28;20051;-61
2021/05/26 02:34:36;;;;;;;12.25;5.35;;;8.40;99.90;;;;;;5017690;28;20030;-60
2021/05/26 02:37:03;;;;;;;12.18;4.95;;;8.40;99.90;;;;;;5026874;28;20034;-60
2021/05/26 02:39:29;;;;;;;14.45;5.68;;;8.40;99.90;;;;;;5023212;28;20033;-60
2021/05/26 02:41:55;;;;;;;16.83;5.25;;;8.50;99.90;;;;;;5013183;28;20022;-60
2021/05/26 02:44:21;;;;;;;11.93;4.93;;;8.50;99.90;;;;;;5023804;28;20070;-61
2021/05/26 02:46:47;;;;;;;12.02;6.00;;;8.60;99.90;;;;;;5019115;28;20037;-60
2021/05/26 02:49:13;;;;;;;16.20;5.45;;;8.70;99.90;;;;;;5023956;28;20033;-61
2021/05/26 02:51:39;;;;;;;15.90;6.20;;;8.70;99.90;;;;;;5017231;28;20019;-60
2021/05/26 02:54:06;;;;;;;10.35;4.15;;;8.70;99.90;;;;;;5026417;28;20379;-61
2021/05/26 02:56:33;;;;;;;13.85;5.05;;;8.80;99.90;;;;;;5015236;28;20036;-60
2021/05/26 02:59:01;;;;;;;14.90;5.28;;;8.90;99.90;;;;;;5019376;28;20363;-61
2021/05/26 03:01:26;;;;;;;16.35;5.15;;;8.90;99.90;;;;;;5016579;28;20030;-60
2021/05/26 03:03:52;;;;;;;18.52;5.38;;;9.00;99.90;;;;;;5017425;28;20057;-60
2021/05/26 03:06:17;;;;;;;13.40;4.65;;;9.00;99.90;;;;;;5026978;28;20057;-60
2021/05/26 03:08:43;;;;;;;14.32;4.22;;;9.00;99.90;;;;;;5027506;28;20392;-60
2021/05/26 03:11:09;;;;;;;18.08;4.78;;;9.00;99.90;;;;;;5025710;28;20049;-61
2021/05/26 03:13:34;;;;;;;17.60;5.00;;;9.10;99.90;;;;;;5026580;28;20033;-60
2021/05/26 03:16:02;;;;;;;15.98;4.50;;;9.10;99.90;;;;;;5017013;28;20025;-60
2021/05/26 03:18:27;;;;;;;11.77;4.30;;;9.10;99.90;;;;;;5028519;28;20021;-61
2021/05/26 03:20:53;;;;;;;19.13;4.60;;;9.20;99.90;;;;;;5004328;28;20038;-60
2021/05/26 03:23:20;;;;;;;12.25;4.53;;;9.10;99.90;;;;;;5025416;28;20499;-60
2021/05/26 03:25:47;;;;;;;19.45;5.55;;;9.10;99.90;;;;;;5027230;28;20048;-60
2021/05/26 03:28:16;;;;;;;12.05;4.00;;;9.20;99.90;;;;;;5023462;28;20430;-60
2021/05/26 03:30:43;;;;;;;12.27;4.40;;;9.20;99.90;;;;;;5029884;28;20056;-60
2021/05/26 03:33:11;;;;;;;14.60;4.10;;;9.20;99.90;;;;;;5031239;28;20363;-61
2021/05/26 03:35:39;;;;;;;14.98;5.65;;;9.30;99.90;;;;;;5026101;28;20389;-60
2021/05/26 03:38:05;;;;;;;15.90;4.97;;;9.40;99.90;;;;;;5030337;28;20040;-61
2021/05/26 03:40:31;;;;;;;14.68;5.07;;;9.40;99.90;;;;;;5008050;28;20084;-60
2021/05/26 03:42:57;;;;;;;14.45;5.75;;;9.30;99.90;;;;;;5026297;28;20021;-60
2021/05/26 03:45:22;;;;;;;15.10;4.80;;;9.30;99.90;;;;;;5008764;28;20486;-61
2021/05/26 03:47:48;;;;;;;8.68;2.85;;;9.40;99.90;;;;;;5018398;28;20607;-60
2021/05/26 03:50:14;;;;;;;14.27;5.38;;;9.40;99.90;;;;;;5024924;28;20573;-60
2021/05/26 03:52:45;;;;;;;15.00;3.75;;;9.40;99.90;;;;;;5022604;28;20025;-61
2021/05/26 03:55:13;;;;;;;12.38;4.35;;;9.40;99.90;;;;;;5026252;28;20062;-60
2021/05/26 03:57:39;;;;;;;14.02;4.80;;;9.40;99.90;;;;;;5026588;28;20096;-60
2021/05/26 04:00:08;;;;;;;12.75;4.75;;;9.30;99.90;;;;;;5023502;28;20104;-60
2021/05/26 04:02:37;;;;;;;17.90;5.15;;;9.40;99.90;;;;;;5022065;28;20087;-60
2021/05/26 04:05:04;;;;;;;8.68;3.15;;;9.40;99.90;;;;;;5019496;28;20076;-61
2021/05/26 04:07:29;;;;;;;17.73;5.22;;;9.40;99.90;;;;;;5017574;28;20417;-60
2021/05/26 04:09:55;;;;;;;8.93;3.38;;;9.40;99.90;;;;;;5026546;28;20037;-60
2021/05/26 04:12:24;;;;;;;20.75;4.50;;;9.50;99.90;;;;;;5021159;28;20273;-60
2021/05/26 04:14:50;;;;;;;18.25;5.10;;;9.50;99.90;;;;;;5018631;28;20116;-60
2021/05/26 04:17:16;;;;;;;14.20;5.45;;;9.40;99.90;;;;;;5028503;28;20081;-60
2021/05/26 04:19:41;;;;;;;16.08;4.85;;;9.50;99.90;;;;;;5029454;28;20044;-60
2021/05/26 04:22:07;;;;;;;18.52;5.50;;;9.50;99.90;;;;;;5027975;28;20098;-62
2021/05/26 04:24:32;;;;;;;13.45;4.75;;;9.50;99.90;;;;;;5020958;28;20022;-61
2021/05/26 04:26:59;;;;;;;12.85;5.10;;;9.50;99.90;;;;;;5019199;28;20022;-61
2021/05/26 04:29:25;;;;;;;14.93;5.68;;;9.50;99.90;;;;;;5017605;28;20179;-61
2021/05/26 04:31:51;;;;;;;17.02;4.50;;;9.50;99.90;;;;;;5014357;28;20101;-62
2021/05/26 04:34:17;;;;;;;9.10;3.92;;;9.50;99.90;;;;;;5012277;28;20382;-61
2021/05/26 04:36:42;;;;;;;16.25;5.10;;;9.40;99.90;;;;;;5014841;28;20052;-62
2021/05/26 04:39:08;;;;;;;17.40;4.90;;;9.50;99.90;;;;;;5018283;28;20560;-62
2021/05/26 04:41:34;;;;;;;12.02;4.80;;;9.60;99.90;;;;;;5014294;28;20034;-62
2021/05/26 04:44:00;;;;;;;18.50;5.78;;;9.60;99.90;;;;;;5016333;28;20080;-62
2021/05/26 04:46:26;;;;;;;11.27;4.65;;;9.60;99.90;;;;;;5026389;28;20477;-62
2021/05/26 04:48:51;;;;;;;17.13;5.72;;;9.70;99.90;;;;;;5026172;28;20122;-62
2021/05/26 04:51:17;;;;;;;13.93;4.25;;;9.60;99.90;;;;;;5024183;28;20686;-63
2021/05/26 04:53:42;;;;;;;11.88;4.85;;;9.60;99.90;;;;;;5023512;28;20414;-61
2021/05/26 04:56:08;;;;;;;8.38;3.63;;;9.60;99.90;;;;;;5014909;28;20041;-62
2021/05/26 04:58:34;;;;;;;12.88;4.60;;;9.60;99.90;;;;;;5011866;28;20030;-62
2021/05/26 05:01:00;;;;;;;16.50;4.85;;;9.70;99.90;;;;;;5015117;28;20018;-62
2021/05/26 05:03:25;;;;;;;12.82;4.93;;;9.70;99.90;;;;;;5009827;28;20505;-62
2021/05/26 05:05:51;;;;;;;10.05;3.38;;;9.70;99.90;;;;;;5017411;28;20022;-61
2021/05/26 05:08:17;;;;;;;14.30;4.25;;;9.80;99.90;;;;;;5013392;28;20441;-62
2021/05/26 05:10:42;;;;;;;9.18;3.90;;;9.80;99.90;;;;;;5018731;28;20029;-62
2021/05/26 05:13:08;;;;;;;9.68;2.58;;;9.70;99.90;;;;;;5014812;28;20068;-62
2021/05/26 05:15:34;;;;;;;9.77;3.88;;;9.80;99.90;;;;;;5016648;28;20481;-61
2021/05/26 05:17:59;;;;;;;12.30;3.55;;;9.80;99.90;;;;;;5015025;28;20024;-62
2021/05/26 05:20:25;;;;;;;12.38;3.50;;;9.80;99.90;;;;;;5021405;28;20026;-62
2021/05/26 05:22:53;;;;;;;10.85;3.65;;;9.80;99.90;;;;;;5028584;28;20117;-62
2021/05/26 05:25:19;;;;;;;7.25;2.85;;;9.80;99.90;;;;;;5021364;28;20029;-62
2021/05/26 05:27:44;;;;;;;8.52;3.20;;;9.80;99.90;;;;;;5021277;28;20481;-62
2021/05/26 05:30:11;;;;;;;9.43;2.90;;;9.70;99.90;;;;;;5017879;28;20060;-61
2021/05/26 05:32:37;;;;;;;11.98;2.90;;;9.70;99.90;;;;;;5020694;28;20446;-62
2021/05/26 05:35:05;;;;;;;6.47;2.15;;;9.70;99.90;;;;;;5006042;28;20389;-62
2021/05/26 05:37:32;;;;;;;9.73;3.53;;;9.70;99.90;;;;;;5039328;28;20025;-63
2021/05/26 05:39:57;;;;;;;11.15;3.88;;;9.70;99.90;;;;;;5019916;28;20539;-62
2021/05/26 05:42:23;;;;;;;10.70;4.05;;;9.80;99.90;;;;;;5023565;28;20029;-62
2021/05/26 05:44:49;;;;;;;12.02;4.93;;;9.90;99.90;;;;;;5013622;28;20486;-62
2021/05/26 05:47:14;;;;;;;9.80;5.00;;;9.90;99.90;;;;;;5010996;28;20092;-63
2021/05/26 05:49:41;;;;;;;9.68;4.20;;;9.90;99.90;;;;;;5022695;28;20038;-62
2021/05/26 05:52:10;;;;;;;12.25;5.78;;;9.80;99.90;;;;;;5021403;28;20029;-62
2021/05/26 05:54:35;;;;;;;10.70;4.95;;;9.90;99.90;;;;;;5016641;28;20045;-62
2021/05/26 05:57:02;;;;;;;11.82;4.72;;;9.80;99.90;;;;;;5024901;28;20088;-61
2021/05/26 05:59:28;;;;;;;11.07;4.25;;;9.70;99.90;;;;;;5021323;28;20021;-62
2021/05/26 06:01:54;;;;;;;9.02;4.25;;;9.70;99.90;;;;;;5021423;28;20029;-61
2021/05/26 06:04:19;;;;;;;14.82;5.07;;;9.80;99.90;;;;;;5012626;28;20037;-62
2021/05/26 06:06:45;;;;;;;13.68;5.22;;;9.90;99.90;;;;;;5018039;28;20029;-61
2021/05/26 06:09:11;;;;;;;15.95;4.60;;;10.10;99.90;;;;;;5021512;28;20172;-63
2021/05/26 06:11:37;;;;;;;8.88;3.88;;;10.20;99.90;;;;;;5022777;28;20052;-62
2021/05/26 06:14:06;;;;;;;11.00;4.20;;;10.40;99.90;;;;;;5018148;28;20485;-61
2021/05/26 06:16:33;;;;;;;12.07;4.20;;;10.30;99.90;;;;;;5019232;28;20022;-62
2021/05/26 06:18:59;;;;;;;11.25;3.75;;;10.50;99.90;;;;;;5013881;28;20708;-62
2021/05/26 06:21:25;;;;;;;12.63;4.00;;;10.60;99.90;;;;;;5012778;28;20037;-62
2021/05/26 06:23:50;;;;;;;9.57;3.60;;;10.70;99.90;;;;;;5020313;28;20027;-61
2021/05/26 06:26:16;;;;;;;7.57;2.80;;;10.60;99.90;;;;;;5023371;28;20493;-61
2021/05/26 06:28:41;;;;;;;9.07;3.28;;;10.40;99.90;;;;;;4999629;28;20030;-61
2021/05/26 06:31:07;;;;;;;9.60;3.20;;;10.40;99.90;;;;;;5012945;28;20065;-61
2021/05/26 06:33:33;;;;;;;12.10;3.28;;;10.40;99.90;;;;;;5012561;28;20102;-61
2021/05/26 06:35:58;;;;;;;10.18;3.53;;;10.40;99.90;;;;;;5013042;28;20045;-61
2021/05/26 06:38:24;;;;;;;8.88;3.33;;;10.30;99.90;;;;;;5012159;28;20116;-61
2021/05/26 06:40:50;;;;;;;8.45;3.45;;;10.30;99.90;;;;;;5019438;28;20025;-62
2021/05/26 06:43:16;;;;;;;8.07;3.42;;;10.50;99.90;;;;;;5022210;28;20056;-62
2021/05/26 06:45:42;;;;;;;9.15;3.55;;;10.60;99.90;;;;;;5022858;28;20331;-62
2021/05/26 06:48:09;;;;;;;9.63;3.65;;;10.60;99.90;;;;;;5027037;28;20025;-62
2021/05/26 06:50:35;;;;;;;8.35;2.78;;;10.60;99.90;;;;;;5015148;28;20031;-62
2021/05/26 06:53:01;;;;;;;8.50;3.25;;;10.60;99.90;;;;;;5023077;28;20551;-61
2021/05/26 06:55:26;;;;;;;5.90;2.40;;;10.60;99.90;;;;;;5019201;28;20049;-61
2021/05/26 06:57:52;;;;;;;9.48;3.78;;;10.60;99.90;;;;;;5026730;28;20553;-62
2021/05/26 07:00:18;;;;;;;7.40;2.28;;;10.80;99.90;;;;;;5019607;28;20441;-61
2021/05/26 07:02:43;;;;;;;8.52;3.33;;;11.00;99.90;;;;;;5025144;28;20124;-62
2021/05/26 07:05:10;;;;;;;9.55;2.78;;;11.30;99.90;;;;;;5025545;28;20065;-62
2021/05/26 07:07:35;;;;;;;10.90;3.50;;;11.40;99.90;;;;;;4989093;28;20635;-61
2021/05/26 07:10:01;;;;;;;8.65;3.10;;;11.30;99.90;;;;;;4988993;28;20130;-62
2021/05/26 07:12:26;;;;;;;9.93;3.13;;;11.40;99.90;;;;;;4986761;28;20158;-62
2021/05/26 07:14:52;;;;;;;7.22;2.10;;;11.60;99.90;;;;;;4979356;28;20092;-62
2021/05/26 07:17:18;;;;;;;6.88;2.45;;;11.40;99.90;;;;;;4987652;28;20576;-62
2021/05/26 07:19:44;;;;;;;9.10;1.88;;;11.20;99.90;;;;;;4989462;28;20045;-62
2021/05/26 07:22:09;;;;;;;6.40;2.63;;;11.40;99.90;;;;;;4988271;28;20038;-62
2021/05/26 07:24:35;;;;;;;5.40;2.05;;;11.60;99.90;;;;;;4983962;28;20054;-62
2021/05/26 07:27:00;;;;;;;5.70;2.08;;;11.80;99.90;;;;;;4988597;28;20173;-62
2021/05/26 07:29:26;;;;;;;13.07;2.90;;;11.80;99.90;;;;;;4988933;28;20264;-62
2021/05/26 07:31:51;;;;;;;6.25;2.15;;;11.80;99.90;;;;;;4989526;28;20098;-62
2021/05/26 07:34:17;;;;;;;6.80;3.17;;;12.20;99.90;;;;;;4988199;28;20137;-62
2021/05/26 07:36:43;;;;;;;7.05;2.17;;;12.20;99.90;;;;;;4989475;28;20057;-62
2021/05/26 07:39:09;;;;;;;6.28;2.53;;;12.20;99.90;;;;;;5009479;28;20524;-62
2021/05/26 07:41:35;;;;;;;5.70;2.33;;;12.30;99.90;;;;;;5025241;28;20034;-62
2021/05/26 07:44:01;;;;;;;6.53;2.83;;;12.40;99.90;;;;;;5029988;28;20385;-62
2021/05/26 07:46:26;;;;;;;4.97;1.98;;;12.40;99.90;;;;;;5027686;28;20033;-62
2021/05/26 07:48:52;;;;;;;5.43;2.03;;;12.30;99.90;;;;;;5031418;28;20034;-62
2021/05/26 07:51:28;;;;;;;7.03;2.10;;;12.70;99.90;;;;;;5028133;28;20027;-62
2021/05/26 07:53:54;;;;;;;5.63;2.00;;;12.90;99.90;;;;;;5019963;28;20032;-63
2021/05/26 07:56:21;;;;;;;7.53;2.35;;;13.00;99.90;;;;;;5026013;28;20125;-62
2021/05/26 07:58:46;;;;;;;5.22;1.70;;;12.90;99.90;;;;;;5029585;28;20022;-62
2021/05/26 08:01:12;;;;;;;4.43;1.83;;;13.00;99.90;;;;;;5024497;28;20619;-63
2021/05/26 08:03:37;;;;;;;5.93;2.33;;;13.20;99.90;;;;;;5021342;28;20061;-63
2021/05/26 08:06:03;;;;;;;5.53;2.10;;;13.30;99.90;;;;;;5026618;28;20428;-63
2021/05/26 08:08:30;;;;;;;7.05;1.90;;;13.50;99.90;;;;;;5022137;28;20033;-63
2021/05/26 08:10:56;;;;;;;6.78;2.13;;;13.30;99.90;;;;;;5026702;28;20112;-62
2021/05/26 08:13:22;;;;;;;6.60;2.30;;;13.40;99.90;;;;;;5027594;28;20041;-62
2021/05/26 08:15:48;;;;;;;6.60;1.73;;;13.40;99.90;;;;;;5023684;28;20438;-62
2021/05/26 08:18:18;;;;;;;6.15;1.63;;;13.70;99.90;;;;;;5023585;28;20060;-62
2021/05/26 08:20:43;;;;;;;5.72;2.10;;;13.80;99.90;;;;;;5023810;28;20025;-63
2021/05/26 08:23:09;;;;;;;8.40;1.98;;;13.60;99.90;;;;;;5023934;28;20026;-62
2021/05/26 08:25:35;;;;;;;6.72;2.17;;;13.50;99.90;;;;;;5022932;28;20060;-63
2021/05/26 08:28:00;;;;;;;7.95;2.50;;;13.60;99.90;;;;;;5019589;28;20401;-63
2021/05/26 08:30:26;;;;;;;5.70;2.25;;;13.40;99.90;;;;;;5029489;28;20274;-62
2021/05/26 08:32:51;;;;;;;6.15;2.97;;;13.40;99.90;;;;;;5025344;28;20022;-62
2021/05/26 08:35:17;;;;;;;5.65;1.95;;;13.60;99.90;;;;;;5022187;28;20108;-62
2021/05/26 08:37:43;;;;;;;7.00;2.50;;;13.70;99.90;;;;;;5027350;28;20087;-62
2021/05/26 08:40:09;;;;;;;5.57;2.30;;;14.20;99.90;;;;;;5029591;28;20514;-63
2021/05/26 08:42:35;;;;;;;5.70;2.40;;;14.30;99.90;;;;;;5028484;28;20021;-63
2021/05/26 08:45:04;;;;;;;7.13;2.72;;;14.80;99.90;;;;;;5024052;28;20150;-63
2021/05/26 08:47:33;;;;;;;5.88;2.40;;;15.10;99.90;;;;;;5024766;28;20700;-62
2021/05/26 08:49:59;;;;;;;5.63;2.13;;;15.90;99.90;;;;;;5026162;28;20034;-63
2021/05/26 08:52:25;;;;;;;6.13;2.50;;;15.70;99.90;;;;;;5024449;28;20033;-63
2021/05/26 08:54:50;;;;;;;6.60;2.50;;;15.30;99.90;;;;;;5023956;28;20072;-62
2021/05/26 08:57:16;;;;;;;8.48;2.45;;;15.60;99.90;;;;;;5024047;28;20400;-63
2021/05/26 08:59:42;;;;;;;5.95;2.20;;;15.70;99.90;;;;;;5026229;28;20934;-63
2021/05/26 09:02:12;;;;;;;6.35;1.80;;;15.20;99.90;;;;;;5024336;28;20037;-63
2021/05/26 09:04:39;;;;;;;8.88;3.08;;;14.60;99.90;;;;;;5024127;28;20067;-62
2021/05/26 09:07:33;;;;;;;7.97;3.15;;;13.90;99.90;;;;;;5005966;28;20053;-63
2021/05/26 09:10:03;;;;;;;9.35;3.17;;;13.20;99.90;;;;;;5022612;28;20029;-62
2021/05/26 09:12:34;;;;;;;8.18;3.45;;;12.80;99.90;;;;;;5025084;28;20050;-62
2021/05/26 09:15:08;;;;;;;7.60;3.50;;;12.90;99.90;;;;;;5023048;28;20017;-63
2021/05/26 09:17:35;;;;;;;7.93;3.75;;;12.90;99.90;;;;;;5017276;28;20088;-63
2021/05/26 09:20:30;;;;;;;7.88;3.78;;;13.90;99.90;;;;;;5028175;28;20362;-62
2021/05/26 09:23:09;;;;;;;8.07;3.40;;;14.00;99.90;;;;;;5018862;28;20022;-62
2021/05/26 09:25:56;;;;;;;7.55;3.63;;;13.70;99.90;;;;;;5016235;28;20692;-62
2021/05/26 09:28:22;;;;;;;7.80;3.78;;;13.40;99.90;;;;;;5019730;28;20262;-62
2021/05/26 09:31:04;;;;;;;9.38;4.40;;;13.20;99.90;;;;;;5029110;28;20025;-63
2021/05/26 09:33:38;;;;;;;7.47;3.33;;;13.30;99.90;;;;;;5019261;28;20041;-61
2021/05/26 09:36:26;;;;;;;9.13;4.00;;;13.50;99.90;;;;;;5020419;28;20477;-62
2021/05/26 09:39:04;;;;;;;9.52;3.78;;;14.00;99.90;;;;;;5020834;28;20496;-62
2021/05/26 09:41:34;;;;;;;9.27;4.38;;;13.70;99.90;;;;;;5023546;28;20385;-62
2021/05/26 09:44:09;;;;;;;9.82;4.10;;;13.60;99.90;;;;;;5020548;28;20026;-62
2021/05/26 09:46:39;;;;;;;9.20;4.70;;;14.30;99.90;;;;;;5020779;28;20623;-62
2021/05/26 09:49:09;;;;;;;8.88;4.05;;;15.70;99.90;;;;;;5030580;28;20441;-63
2021/05/26 09:51:46;;;;;;;11.77;5.43;;;16.00;99.90;;;;;;5023765;28;20030;-62
2021/05/26 09:54:12;;;;;;;10.50;5.22;;;16.70;99.90;;;;;;5022132;28;20045;-63
2021/05/26 09:56:40;;;;;;;9.55;4.47;;;17.40;99.90;;;;;;5021039;28;20362;-63
2021/05/26 09:59:06;;;;;;;7.65;3.60;;;16.00;99.90;;;;;;5026441;28;20163;-63
2021/05/26 10:01:33;;;;;;;12.90;5.50;;;15.60;99.90;;;;;;5027318;28;20017;-63
2021/05/26 10:03:59;;;;;;;10.65;4.75;;;15.70;99.90;;;;;;5025853;28;20115;-63
2021/05/26 10:06:27;;;;;;;9.52;5.03;;;15.80;99.90;;;;;;5018492;28;20057;-63
2021/05/26 10:08:57;;;;;;;8.60;4.10;;;15.70;99.90;;;;;;5017485;28;20490;-62
2021/05/26 10:11:27;;;;;;;;;;;15.30;99.90;;;;;;5025266;28;20029;-62
2021/05/26 10:13:54;;;;;;;9.27;4.47;;;15.10;99.90;;;;;;5016766;28;19906;-62
2021/05/26 10:16:21;;;;;;;10.32;5.15;;;15.10;99.90;;;;;;5025211;28;20041;-62
2021/05/26 10:18:48;;;;;;;10.68;5.03;;;15.80;99.90;;;;;;5026511;28;20434;-62
2021/05/26 10:21:15;;;;;;;8.55;3.60;;;16.60;99.90;;;;;;5025016;28;20040;-63
2021/05/26 10:23:41;;;;;;;8.48;4.18;;;17.00;99.90;;;;;;5018583;28;20021;-63
2021/05/26 10:26:07;;;;;;;8.70;4.35;;;17.10;99.90;;;;;;5019817;28;20033;-63
2021/05/26 10:28:33;;;;;;;8.45;3.83;;;17.20;99.90;;;;;;5024057;28;20455;-64
2021/05/26 10:31:02;;;;;;;8.32;3.83;;;16.80;99.90;;;;;;5024012;28;20113;-62
2021/05/26 10:33:39;;;;;;;9.50;4.10;;;16.60;99.90;;;;;;5017217;28;20026;-62
2021/05/26 10:36:08;;;;;;;8.63;3.97;;;15.90;99.90;;;;;;5018299;28;20037;-63
2021/05/26 10:38:58;;;;;;;8.82;4.00;;;17.00;99.90;;;;;;5020844;28;20091;-62
2021/05/26 10:41:23;;;;;;;8.75;3.35;;;18.30;98.70;;;;;;5023844;28;20382;-63
2021/05/26 10:43:54;;;;;;;8.02;2.88;;;18.70;97.70;;;;;;5022462;28;20028;-63
2021/05/26 10:46:37;;;;;;;6.60;3.03;;;18.40;95.40;;;;;;5022646;28;20156;-62
2021/05/26 10:49:07;;;;;;;6.35;2.95;;;17.60;98.20;;;;;;5024636;28;20109;-63
2021/05/26 10:51:51;;;;;;;5.97;2.38;;;17.80;96.60;;;;;;5024003;28;20041;-63
2021/05/26 10:54:38;;;;;;;5.22;2.17;;;17.50;98.30;;;;;;5019980;28;20049;-63
2021/05/26 10:57:06;;;;;;;5.97;2.53;;;17.00;98.30;;;;;;5020697;28;20412;-64
2021/05/26 10:59:31;;;;;;;8.15;2.90;;;16.70;99.50;;;;;;5018665;28;20405;-63
2021/05/26 11:02:03;;;;;;;6.72;2.50;;;16.30;99.30;;;;;;5025275;28;20037;-64
2021/05/26 11:04:29;;;;;;;6.05;2.33;;;17.60;98.90;;;;;;5017196;28;20026;-63
2021/05/26 11:07:17;;;;;;;5.88;2.30;;;18.30;97.60;;;;;;5016518;28;20034;-63
2021/05/26 11:09:56;;;;;;;6.88;2.30;;;18.10;97.10;;;;;;5010608;28;20040;-64
2021/05/26 11:12:22;;;;;;;6.28;2.28;;;18.40;98.20;;;;;;5007321;28;20038;-63
2021/05/26 11:14:53;;;;;;;4.95;2.10;;;17.30;98.70;;;;;;5013523;28;20035;-64
2021/05/26 11:17:21;;;;;;;4.63;2.05;;;17.40;98.00;;;;;;5022577;28;20571;-63
2021/05/26 11:19:48;;;;;;;7.03;1.80;;;18.10;96.40;;;;;;5013956;28;20191;-64
2021/05/26 11:22:15;;;;;;;5.72;2.03;;;17.40;95.70;;;;;;5021051;28;20034;-63
2021/05/26 11:24:45;;;;;;;6.43;2.35;;;17.50;97.80;;;;;;5018883;28;20033;-64
2021/05/26 11:27:14;;;;;;;5.57;2.50;;;17.80;97.60;;;;;;5016742;28;20401;-64
2021/05/26 11:29:40;;;;;;;6.15;2.28;;;16.70;97.40;;;;;;5016749;28;20883;-64
2021/05/26 11:32:07;;;;;;;4.32;1.83;;;17.80;98.10;;;;;;5022901;28;20026;-64
2021/05/26 11:34:34;;;;;;;4.85;2.10;;;18.10;96.10;;;;;;5013685;28;20113;-64
2021/05/26 11:37:01;;;;;;;4.50;1.80;;;17.80;96.60;;;;;;5013828;28;20022;-64
2021/05/26 11:39:28;;;;;;;5.57;2.10;;;18.00;96.10;;;;;;5009836;28;20025;-64
2021/05/26 11:42:17;;;;;;;5.15;1.80;;;18.00;95.80;;;;;;5013705;28;20045;-64
2021/05/26 11:44:44;;;;;;;5.90;1.80;;;18.60;97.80;;;;;;5015587;28;20033;-64
2021/05/26 11:47:09;;;;;;;5.32;1.75;;;18.50;95.40;;;;;;5015799;28;20034;-64
2021/05/26 11:49:40;;;;;;;4.70;1.80;;;19.00;95.70;;;;;;5017464;28;20092;-63
2021/05/26 11:52:14;;;;;;;4.32;1.70;;;19.30;94.60;;;;;;5014524;28;20063;-64
2021/05/26 11:54:57;;;;;;;5.32;1.80;;;19.80;94.30;;;;;;5011550;28;20042;-64
2021/05/26 11:57:32;;;;;;;4.05;1.70;;;20.20;91.40;;;;;;5024626;28;20389;-64
2021/05/26 11:59:58;;;;;;;4.40;1.80;;;19.20;94.20;;;;;;5028725;28;20060;-64
2021/05/26 12:02:24;;;;;;;5.90;1.70;;;19.80;94.20;;;;;;5028097;28;20026;-64
2021/05/26 12:04:49;;;;;;;5.50;2.03;;;20.90;92.00;;;;;;5026326;28;20033;-63
2021/05/26 12:07:23;;;;;;;4.53;1.70;;;21.00;90.40;;;;;;5028819;28;20096;-64
2021/05/26 12:09:56;;;;;;;3.00;1.40;;;20.50;90.70;;;;;;5025553;28;20041;-64
2021/05/26 12:12:23;;;;;;;4.10;1.40;;;20.70;89.40;;;;;;5020591;28;20025;-64
2021/05/26 12:14:50;;;;;;;3.53;1.33;;;21.20;87.20;;;;;;5026186;28;20025;-63
2021/05/26 12:17:17;;;;;;;2.70;1.23;;;20.80;90.00;;;;;;5028053;28;20025;-63
2021/05/26 12:19:44;;;;;;;2.72;1.10;;;20.50;89.70;;;;;;5027437;28;20087;-63
2021/05/26 12:22:22;;;;;;;2.75;1.10;;;20.70;88.00;;;;;;5017024;28;20296;-63
2021/05/26 12:25:00;;;;;;;2.33;1.00;;;20.10;90.40;;;;;;5021097;28;20496;-64
2021/05/26 12:27:35;;;;;;;2.85;1.00;;;20.90;87.80;;;;;;5015538;28;20108;-64
2021/05/26 12:30:12;;;;;;;4.20;1.10;;;22.00;84.60;;;;;;5027146;28;20033;-64
2021/05/26 12:32:37;;;;;;;4.40;1.30;;;22.00;81.80;;;;;;5026321;28;20052;-63
2021/05/26 12:35:03;;;;;;;3.13;1.20;;;20.80;84.30;;;;;;5027676;28;20041;-63
2021/05/26 12:37:44;;;;;;;2.88;1.33;;;20.50;84.20;;;;;;5029186;28;20056;-63
2021/05/26 12:40:15;;;;;;;3.75;1.58;;;19.90;90.90;;;;;;5015847;28;20029;-63
2021/05/26 12:42:41;;;;;;;3.15;1.20;;;20.50;89.00;;;;;;5020803;28;20101;-64
2021/05/26 12:45:30;;;;;;;3.92;1.40;;;20.30;90.30;;;;;;5024583;28;20529;-63
2021/05/26 12:48:12;;;;;;;5.18;1.58;;;19.80;89.80;;;;;;5029584;28;20473;-64
2021/05/26 12:50:42;;;;;;;5.22;1.70;;;19.50;91.30;;;;;;5021962;28;20125;-64